Time;durP1;ratioP1;P1;durP2;ratioP2;P2;SDS_P1;SDS_P2;PMS_P1;PMS_P2;Temp;Humidity;BMP_temperature;BMP_pressure;BME280_temperature;BME280_humidity;BME280_pressure;Samples;Min_cycle;Max_cycle;Signal;HPM_P1;HPM_P2
2022/06/05 00:00:09;;;;;;;2.55;2.20;;;22.10;53.60;;;;;;5056553;28;20889;-65
2022/06/05 00:03:02;;;;;;;3.25;2.22;;;22.10;53.60;;;;;;5054406;28;20040;-65
2022/06/05 00:05:40;;;;;;;2.85;2.25;;;22.10;53.50;;;;;;5055380;28;20215;-60
2022/06/05 00:08:12;;;;;;;2.90;2.60;;;22.00;53.50;;;;;;5055986;28;20098;-66
2022/06/05 00:10:48;;;;;;;2.97;2.25;;;22.10;53.60;;;;;;5054567;28;20033;-65
2022/06/05 00:13:22;;;;;;;2.55;2.30;;;22.10;53.50;;;;;;5056810;28;20049;-64
2022/06/05 00:15:47;;;;;;;2.33;2.13;;;22.10;53.50;;;;;;5055981;28;20115;-65
2022/06/05 00:18:13;;;;;;;2.45;2.25;;;22.10;53.50;;;;;;5057440;28;20100;-66
2022/06/05 00:20:43;;;;;;;2.47;2.28;;;22.10;53.50;;;;;;5052989;28;20783;-64
2022/06/05 00:23:09;;;;;;;2.38;2.20;;;22.10;53.40;;;;;;5056754;28;20051;-63
2022/06/05 00:25:45;;;;;;;2.45;2.25;;;22.10;53.40;;;;;;5055469;28;20684;-63
2022/06/05 00:28:25;;;;;;;2.30;2.10;;;22.10;53.40;;;;;;5050075;28;20123;-65
2022/06/05 00:31:07;;;;;;;4.20;2.60;;;22.10;53.40;;;;;;5047683;28;20079;-64
2022/06/05 00:33:38;;;;;;;3.03;2.33;;;22.10;53.40;;;;;;5051457;28;20191;-66
2022/06/05 00:36:41;;;;;;;2.50;2.17;;;22.00;53.30;;;;;;5055658;28;20370;-65
2022/06/05 00:39:29;;;;;;;2.30;2.10;;;22.10;53.30;;;;;;5055752;28;20048;-63
2022/06/05 00:42:08;;;;;;;2.50;2.30;;;22.00;53.30;;;;;;5054812;28;20515;-64
2022/06/05 00:44:44;;;;;;;2.70;2.50;;;22.00;53.30;;;;;;5046112;28;20047;-64
2022/06/05 00:47:13;;;;;;;3.20;2.42;;;22.00;53.30;;;;;;5044125;28;20389;-65
2022/06/05 00:49:46;;;;;;;2.45;2.25;;;22.00;53.30;;;;;;5054455;28;20158;-63
2022/06/05 00:52:15;;;;;;;2.28;2.08;;;22.00;53.30;;;;;;5053653;28;20081;-65
2022/06/05 00:54:41;;;;;;;3.05;2.20;;;22.00;53.30;;;;;;5055388;28;20112;-64
2022/06/05 00:57:09;;;;;;;2.85;2.20;;;22.00;53.30;;;;;;5055405;28;20149;-59
2022/06/05 00:59:37;;;;;;;2.65;2.30;;;22.00;53.20;;;;;;5044312;28;20091;-65
2022/06/05 01:02:03;;;;;;;2.40;2.20;;;22.00;53.20;;;;;;5055327;28;20136;-64
2022/06/05 01:04:31;;;;;;;3.30;2.28;;;22.00;53.20;;;;;;5036265;28;20037;-63
2022/06/05 01:06:56;;;;;;;2.20;2.00;;;22.00;53.20;;;;;;5054181;28;20054;-63
2022/06/05 01:09:22;;;;;;;1.90;1.77;;;22.00;53.20;;;;;;5041252;28;20387;-62
2022/06/05 01:12:13;;;;;;;2.88;2.15;;;22.00;53.20;;;;;;5054200;28;20049;-65
2022/06/05 01:14:48;;;;;;;2.67;2.47;;;22.00;53.20;;;;;;5053415;28;20538;-64
2022/06/05 01:17:27;;;;;;;2.88;2.45;;;22.00;53.20;;;;;;5052889;28;20041;-62
2022/06/05 01:20:24;;;;;;;2.47;2.28;;;22.00;53.20;;;;;;5055285;28;20044;-65
2022/06/05 01:23:16;;;;;;;2.55;2.20;;;22.00;53.20;;;;;;5052896;28;20155;-63
2022/06/05 01:26:09;;;;;;;3.25;2.22;;;22.00;53.10;;;;;;5054220;28;20044;-62
2022/06/05 01:28:41;;;;;;;2.72;2.13;;;22.00;53.10;;;;;;5053966;28;20041;-63
2022/06/05 01:31:38;;;;;;;2.40;2.20;;;22.00;53.20;;;;;;5054415;28;20040;-66
2022/06/05 01:34:10;;;;;;;2.40;2.22;;;21.90;53.10;;;;;;5028495;28;20052;-65
2022/06/05 01:36:45;;;;;;;3.10;2.38;;;22.00;53.10;;;;;;5047897;28;20492;-64
2022/06/05 01:39:24;;;;;;;3.25;2.63;;;22.00;53.10;;;;;;5053548;28;20051;-61
2022/06/05 01:41:55;;;;;;;3.13;2.20;;;21.90;53.10;;;;;;5054531;28;20040;-65
2022/06/05 01:44:33;;;;;;;3.40;2.40;;;22.00;53.20;;;;;;5052810;28;20041;-59
2022/06/05 01:47:19;;;;;;;3.85;2.40;;;22.00;53.10;;;;;;5055385;28;20392;-63
2022/06/05 01:49:51;;;;;;;2.75;2.55;;;22.00;53.10;;;;;;5043840;28;20036;-60
2022/06/05 01:52:36;;;;;;;3.10;2.65;;;22.00;53.10;;;;;;5053347;28;20087;-66
2022/06/05 01:55:15;;;;;;;3.10;2.63;;;22.00;53.20;;;;;;5054559;28;20094;-65
2022/06/05 01:57:41;;;;;;;2.80;2.08;;;22.00;53.20;;;;;;5057336;28;20061;-63
2022/06/05 02:00:16;;;;;;;2.50;2.30;;;22.00;53.20;;;;;;5046029;28;20064;-61
2022/06/05 02:02:48;;;;;;;2.50;2.30;;;22.00;53.00;;;;;;5045939;28;20040;-65
2022/06/05 02:05:20;;;;;;;3.05;2.58;;;21.90;53.10;;;;;;5056736;28;20154;-65
2022/06/05 02:07:54;;;;;;;2.35;2.13;;;21.90;53.10;;;;;;5041232;28;20144;-64
2022/06/05 02:10:29;;;;;;;2.97;2.45;;;21.90;53.10;;;;;;5058820;28;20071;-65
2022/06/05 02:12:57;;;;;;;2.58;2.38;;;21.90;53.00;;;;;;5036686;28;20044;-63
2022/06/05 02:15:23;;;;;;;2.78;2.22;;;21.90;53.00;;;;;;5041419;28;20032;-65
2022/06/05 02:17:50;;;;;;;3.05;2.40;;;22.00;53.00;;;;;;5057735;28;20099;-64
2022/06/05 02:20:16;;;;;;;3.08;2.40;;;21.90;53.00;;;;;;5057939;28;20045;-64
2022/06/05 02:22:45;;;;;;;2.95;2.63;;;21.90;53.00;;;;;;5057726;28;20060;-65
2022/06/05 02:25:12;;;;;;;2.65;2.42;;;21.90;53.00;;;;;;5050275;28;20052;-61
2022/06/05 02:27:38;;;;;;;3.22;2.33;;;21.90;53.00;;;;;;5047573;28;20154;-64
2022/06/05 02:30:07;;;;;;;3.20;2.60;;;21.90;53.00;;;;;;5049424;28;20560;-65
2022/06/05 02:33:01;;;;;;;3.97;2.67;;;21.90;52.90;;;;;;5048447;28;20079;-64
2022/06/05 02:35:40;;;;;;;3.25;2.10;;;21.90;52.90;;;;;;5057687;28;20037;-63
2022/06/05 02:38:31;;;;;;;2.53;2.33;;;21.90;53.00;;;;;;5046212;28;20037;-65
2022/06/05 02:41:09;;;;;;;3.15;2.15;;;21.90;53.00;;;;;;5044790;28;20040;-63
2022/06/05 02:46:50;;;;;;;;;;;21.90;52.90;;;;;;5057941;28;20628;-64
2022/06/05 02:49:34;;;;;;;2.60;2.40;;;21.90;52.90;;;;;;5058471;28;19924;-63
2022/06/05 02:52:04;;;;;;;3.33;2.53;;;21.80;52.90;;;;;;5043572;28;20118;-63
2022/06/05 02:54:30;;;;;;;2.70;2.30;;;21.80;53.00;;;;;;5053928;28;20128;-62
2022/06/05 02:56:56;;;;;;;2.70;2.50;;;21.80;53.00;;;;;;5044225;28;20032;-62
2022/06/05 02:59:23;;;;;;;2.50;2.30;;;21.80;52.90;;;;;;5056188;28;20043;-62
2022/06/05 03:04:34;;;;;;;3.20;2.47;;;21.90;52.90;;;;;;5058225;28;20403;-65
2022/06/05 03:06:59;;;;;;;2.45;2.25;;;21.80;52.90;;;;;;5040312;28;20047;-64
2022/06/05 03:09:25;;;;;;;2.95;2.55;;;21.80;52.80;;;;;;5057503;28;20139;-66
2022/06/05 03:11:51;;;;;;;3.25;2.40;;;21.90;52.90;;;;;;5047967;28;20536;-65
2022/06/05 03:14:17;;;;;;;2.42;2.22;;;21.90;53.00;;;;;;5054316;28;20040;-65
2022/06/05 03:16:43;;;;;;;2.67;2.45;;;21.90;52.90;;;;;;5056918;28;20577;-65
2022/06/05 03:19:10;;;;;;;2.70;2.50;;;21.80;52.90;;;;;;5058056;28;20134;-59
2022/06/05 03:21:37;;;;;;;2.67;2.47;;;21.90;53.00;;;;;;5057089;28;20734;-65
2022/06/05 03:24:04;;;;;;;2.80;2.30;;;21.90;52.90;;;;;;5057742;28;20079;-62
2022/06/05 03:26:31;;;;;;;2.90;2.70;;;21.80;52.80;;;;;;5055658;28;20029;-66
2022/06/05 03:28:56;;;;;;;3.00;2.63;;;21.80;52.80;;;;;;5050424;28;20049;-63
2022/06/05 03:31:22;;;;;;;2.67;2.47;;;21.90;52.90;;;;;;5056503;28;20028;-63
2022/06/05 03:33:48;;;;;;;2.83;2.50;;;21.80;52.80;;;;;;5056229;28;20075;-65
2022/06/05 03:36:16;;;;;;;3.33;2.70;;;21.80;52.70;;;;;;5049606;28;20045;-64
2022/06/05 03:38:42;;;;;;;3.90;2.53;;;21.80;52.70;;;;;;5048273;28;20389;-62
2022/06/05 03:41:08;;;;;;;3.25;2.47;;;21.80;52.70;;;;;;5049701;28;20045;-62
2022/06/05 03:43:35;;;;;;;5.10;2.97;;;21.80;52.70;;;;;;5055294;28;20427;-66
2022/06/05 03:46:02;;;;;;;2.70;2.50;;;21.80;52.80;;;;;;5050483;28;20585;-65
2022/06/05 03:48:28;;;;;;;3.35;2.47;;;21.80;52.80;;;;;;5055412;28;20043;-61
2022/06/05 03:50:54;;;;;;;3.90;2.70;;;21.80;52.80;;;;;;5054083;28;20041;-64
2022/06/05 03:53:19;;;;;;;2.58;2.38;;;21.80;52.80;;;;;;5056392;28;20100;-65
2022/06/05 03:55:45;;;;;;;2.50;2.30;;;21.80;52.80;;;;;;5056257;28;20052;-65
2022/06/05 03:58:11;;;;;;;2.42;2.22;;;21.80;52.80;;;;;;5054601;28;20041;-65
2022/06/05 04:00:36;;;;;;;2.58;2.38;;;21.80;52.80;;;;;;5054948;28;20051;-62
2022/06/05 04:03:02;;;;;;;2.65;2.45;;;21.80;52.80;;;;;;5054205;28;20981;-64
2022/06/05 04:05:27;;;;;;;3.47;2.80;;;21.80;52.80;;;;;;5056326;28;20033;-64
2022/06/05 04:07:53;;;;;;;2.67;2.47;;;21.80;52.80;;;;;;5054940;28;20124;-65
2022/06/05 04:10:19;;;;;;;2.75;2.55;;;21.80;52.80;;;;;;5056512;28;20116;-66
2022/06/05 04:12:46;;;;;;;3.10;2.53;;;21.80;52.80;;;;;;5056407;28;20448;-59
2022/06/05 04:15:12;;;;;;;2.60;2.40;;;21.80;52.80;;;;;;5053721;28;20118;-62
2022/06/05 04:17:38;;;;;;;2.80;2.60;;;21.80;52.80;;;;;;5053881;28;20048;-65
2022/06/05 04:20:05;;;;;;;2.80;2.60;;;21.80;52.80;;;;;;5053914;28;20120;-65
2022/06/05 04:22:30;;;;;;;3.20;2.53;;;21.80;52.80;;;;;;5047487;28;20037;-65
2022/06/05 04:24:56;;;;;;;2.90;2.65;;;21.80;52.90;;;;;;5054593;28;20111;-66
2022/06/05 04:27:21;;;;;;;2.92;2.63;;;21.80;52.90;;;;;;5055505;28;21280;-65
2022/06/05 04:29:47;;;;;;;2.70;2.50;;;21.80;52.80;;;;;;5057943;28;20044;-64
2022/06/05 04:32:13;;;;;;;2.53;2.33;;;21.80;52.80;;;;;;5055635;28;20106;-65
2022/06/05 04:34:38;;;;;;;2.78;2.58;;;21.80;52.90;;;;;;5056381;28;20059;-64
2022/06/05 04:37:06;;;;;;;3.22;2.40;;;21.80;52.80;;;;;;5055211;28;20148;-64
2022/06/05 04:39:31;;;;;;;2.70;2.50;;;21.80;52.90;;;;;;5036092;28;20635;-65
2022/06/05 04:41:57;;;;;;;2.78;2.58;;;21.80;52.90;;;;;;5056248;28;20047;-65
2022/06/05 04:44:23;;;;;;;2.80;2.60;;;21.80;52.90;;;;;;5056139;28;20037;-64
2022/06/05 04:46:48;;;;;;;2.97;2.78;;;21.80;52.90;;;;;;5055609;28;20605;-65
2022/06/05 04:49:14;;;;;;;2.55;2.35;;;21.80;52.90;;;;;;5054069;28;20174;-62
2022/06/05 04:51:41;;;;;;;2.63;2.42;;;21.80;52.80;;;;;;5055142;28;20037;-63
2022/06/05 04:54:08;;;;;;;2.65;2.35;;;21.70;52.80;;;;;;5054056;28;20109;-63
2022/06/05 04:56:34;;;;;;;3.13;2.50;;;21.80;52.90;;;;;;5053793;28;20037;-66
2022/06/05 04:59:01;;;;;;;2.58;2.38;;;21.80;52.80;;;;;;5054991;28;20107;-64
2022/06/05 05:01:29;;;;;;;3.00;2.33;;;21.80;53.70;;;;;;5056288;28;20041;-63
2022/06/05 05:03:58;;;;;;;3.17;2.28;;;21.80;53.00;;;;;;5054394;28;20370;-65
2022/06/05 05:06:25;;;;;;;2.85;2.55;;;21.80;53.00;;;;;;5053413;28;20167;-63
2022/06/05 05:08:51;;;;;;;2.88;2.60;;;21.80;53.00;;;;;;5055182;28;20059;-61
2022/06/05 05:11:17;;;;;;;3.95;2.70;;;21.80;53.00;;;;;;5056081;28;20132;-62
2022/06/05 05:13:43;;;;;;;3.03;2.58;;;21.80;53.10;;;;;;5052433;28;20033;-65
2022/06/05 05:16:09;;;;;;;3.30;2.60;;;21.80;53.00;;;;;;5052609;28;20534;-65
2022/06/05 05:18:35;;;;;;;3.35;2.40;;;21.80;53.00;;;;;;5050994;28;20032;-65
2022/06/05 05:21:09;;;;;;;8.10;2.30;;;21.70;53.00;;;;;;5051335;28;20052;-65
2022/06/05 05:23:35;;;;;;;2.65;2.40;;;21.80;53.00;;;;;;5051664;28;20041;-65
2022/06/05 05:26:11;;;;;;;4.05;2.83;;;21.70;52.90;;;;;;5052205;28;20477;-64
2022/06/05 05:28:39;;;;;;;3.05;2.30;;;21.80;52.90;;;;;;5050660;28;20064;-64
2022/06/05 05:31:10;;;;;;;5.30;2.75;;;21.70;52.90;;;;;;5051837;28;20095;-65
2022/06/05 05:33:36;;;;;;;;;;;21.70;52.90;;;;;;5052551;28;20103;-64
2022/06/05 05:36:02;;;;;;;4.32;2.40;;;21.70;52.80;;;;;;5047764;28;19927;-61
2022/06/05 05:38:28;;;;;;;2.88;2.67;;;21.70;53.00;;;;;;5053531;28;20044;-62
2022/06/05 05:43:38;;;;;;;5.65;2.42;;;21.70;52.90;;;;;;5050812;28;20056;-61
2022/06/05 05:46:08;;;;;;;4.53;2.60;;;21.70;52.90;;;;;;5051929;28;20033;-65
2022/06/05 05:48:34;;;;;;;3.07;2.57;;;21.70;52.80;;;;;;5045010;28;20099;-62
2022/06/05 05:50:59;;;;;;;2.97;2.33;;;21.70;52.90;;;;;;5053821;28;22504;-65
2022/06/05 05:53:25;;;;;;;2.53;2.30;;;21.70;52.90;;;;;;5053016;28;20052;-62
2022/06/05 05:55:50;;;;;;;3.28;2.67;;;21.70;52.90;;;;;;5054961;28;20045;-60
2022/06/05 05:58:16;;;;;;;3.65;2.60;;;21.70;52.80;;;;;;5035561;28;20049;-62
2022/06/05 06:00:41;;;;;;;2.88;2.67;;;21.70;52.80;;;;;;5045110;28;20055;-61
2022/06/05 06:03:07;;;;;;;2.88;2.67;;;21.70;52.70;;;;;;5053079;28;20028;-61
2022/06/05 06:05:33;;;;;;;4.38;3.30;;;21.70;52.70;;;;;;5054413;28;21185;-62
2022/06/05 06:07:59;;;;;;;4.78;3.00;;;21.70;52.70;;;;;;5052566;28;20163;-62
2022/06/05 06:10:25;;;;;;;4.28;3.58;;;21.70;52.80;;;;;;5055293;28;20492;-61
2022/06/05 06:12:50;;;;;;;4.60;3.10;;;21.70;52.80;;;;;;5035130;28;20131;-62
2022/06/05 06:15:16;;;;;;;3.70;3.40;;;21.70;52.80;;;;;;5053190;28;20129;-63
2022/06/05 06:17:42;;;;;;;4.03;3.63;;;21.70;52.90;;;;;;5054990;28;20040;-64
2022/06/05 06:20:08;;;;;;;5.13;3.50;;;21.70;52.80;;;;;;5053701;28;20033;-63
2022/06/05 06:22:35;;;;;;;4.93;3.33;;;21.70;52.90;;;;;;5055354;28;20459;-63
2022/06/05 06:25:02;;;;;;;3.47;3.17;;;21.70;53.00;;;;;;5053789;28;20033;-60
2022/06/05 06:27:28;;;;;;;4.22;3.47;;;21.70;53.30;;;;;;5045958;28;20049;-64
2022/06/05 06:29:53;;;;;;;3.90;2.92;;;21.70;53.70;;;;;;5053504;28;20079;-60
2022/06/05 06:32:19;;;;;;;4.30;3.85;;;21.70;53.90;;;;;;5054069;28;20056;-64
2022/06/05 06:34:45;;;;;;;3.80;3.50;;;21.70;54.20;;;;;;5053489;28;20040;-65
2022/06/05 06:37:10;;;;;;;5.80;4.10;;;21.70;54.30;;;;;;5052007;28;20036;-62
2022/06/05 06:39:36;;;;;;;4.03;3.60;;;21.70;54.40;;;;;;5051431;28;20041;-60
2022/06/05 06:42:02;;;;;;;4.35;3.95;;;21.80;54.40;;;;;;5043146;28;20048;-63
2022/06/05 06:44:28;;;;;;;4.90;4.50;;;21.80;54.50;;;;;;5055161;28;20048;-63
2022/06/05 06:46:53;;;;;;;4.82;4.38;;;21.80;54.70;;;;;;5056517;28;20032;-63
2022/06/05 06:49:19;;;;;;;4.88;4.25;;;21.70;54.70;;;;;;5055932;28;20534;-62
2022/06/05 06:51:45;;;;;;;5.32;4.82;;;21.80;54.60;;;;;;5053920;28;20074;-62
2022/06/05 06:54:10;;;;;;;5.05;4.60;;;21.80;54.70;;;;;;5055082;28;20075;-60
2022/06/05 06:56:36;;;;;;;4.90;4.45;;;21.80;54.80;;;;;;5055031;28;20033;-62
2022/06/05 06:59:03;;;;;;;5.82;4.55;;;21.80;54.80;;;;;;5050497;28;20037;-63
2022/06/05 07:01:29;;;;;;;5.35;4.47;;;21.80;54.80;;;;;;5053189;28;20070;-60
2022/06/05 07:03:54;;;;;;;6.47;4.40;;;21.80;54.70;;;;;;5055845;28;20469;-62
2022/06/05 07:06:20;;;;;;;14.27;5.45;;;21.80;54.80;;;;;;5036787;28;20021;-63
2022/06/05 07:08:47;;;;;;;6.57;4.53;;;21.80;54.90;;;;;;5052413;28;20040;-65
2022/06/05 07:11:14;;;;;;;5.10;4.60;;;21.80;55.00;;;;;;5052780;28;20116;-64
2022/06/05 07:13:40;;;;;;;8.82;4.95;;;21.80;55.00;;;;;;5054652;28;20044;-64
2022/06/05 07:16:08;;;;;;;5.80;4.25;;;21.80;55.10;;;;;;5053422;28;20262;-63
2022/06/05 07:18:34;;;;;;;5.82;4.35;;;21.80;55.00;;;;;;5033840;28;20032;-61
2022/06/05 07:21:16;;;;;;;5.78;5.00;;;21.80;55.00;;;;;;5055742;28;20086;-63
2022/06/05 07:23:42;;;;;;;5.95;5.00;;;21.80;54.90;;;;;;5053216;28;20083;-64
2022/06/05 07:26:10;;;;;;;5.15;4.65;;;21.80;54.90;;;;;;5052384;28;20534;-62
2022/06/05 07:28:37;;;;;;;5.53;4.75;;;21.80;55.20;;;;;;5052630;28;20044;-64
2022/06/05 07:31:04;;;;;;;5.68;5.10;;;21.80;55.40;;;;;;5056036;28;20101;-62
2022/06/05 07:33:31;;;;;;;4.35;4.00;;;21.80;55.30;;;;;;5053295;28;20060;-68
2022/06/05 07:36:00;;;;;;;6.30;4.65;;;21.80;55.40;;;;;;5036818;28;20175;-67
2022/06/05 07:38:26;;;;;;;5.28;4.80;;;21.80;55.50;;;;;;5032868;28;20041;-61
2022/06/05 07:40:52;;;;;;;7.28;5.00;;;21.80;55.40;;;;;;5034577;28;20040;-63
2022/06/05 07:43:20;;;;;;;7.18;4.60;;;21.80;55.50;;;;;;5051012;28;20737;-66
2022/06/05 07:45:46;;;;;;;8.38;5.22;;;21.80;55.50;;;;;;5034399;28;20053;-66
2022/06/05 07:48:11;;;;;;;9.90;4.88;;;21.80;55.60;;;;;;5051675;28;20126;-62
2022/06/05 07:54:26;;;;;;;5.95;5.07;;;21.80;55.90;;;;;;5045581;28;20127;-65
2022/06/05 07:56:07;;;;;;;5.47;4.93;;;21.80;56.40;;;;;;5042885;28;20051;-64
2022/06/05 07:58:32;;;;;;;6.53;5.68;;;21.80;57.00;;;;;;5045610;28;20064;-67
2022/06/05 08:00:58;;;;;;;5.70;5.20;;;21.80;57.30;;;;;;5032874;28;20759;-60
2022/06/05 08:03:23;;;;;;;6.20;5.60;;;21.80;57.40;;;;;;5040877;28;20041;-67
2022/06/05 08:05:49;;;;;;;6.63;5.65;;;21.80;57.30;;;;;;5050334;28;20041;-66
2022/06/05 08:08:15;;;;;;;5.80;5.28;;;21.80;57.30;;;;;;5048795;28;20769;-66
2022/06/05 08:10:40;;;;;;;5.50;5.00;;;21.80;57.10;;;;;;5041429;28;20037;-61
2022/06/05 08:13:06;;;;;;;6.40;5.13;;;21.80;57.00;;;;;;5047152;28;20175;-67
2022/06/05 08:15:31;;;;;;;6.55;4.90;;;21.80;57.00;;;;;;5048075;28;20036;-66
2022/06/05 08:17:57;;;;;;;5.78;5.00;;;21.80;56.80;;;;;;5051849;28;20051;-64
2022/06/05 08:20:23;;;;;;;7.82;5.20;;;21.80;56.90;;;;;;5051526;28;20036;-66
2022/06/05 08:22:48;;;;;;;6.57;4.35;;;21.80;57.10;;;;;;5051324;28;20468;-67
2022/06/05 08:25:14;;;;;;;5.70;5.20;;;21.80;57.30;;;;;;5052280;28;20033;-66
2022/06/05 08:27:40;;;;;;;6.13;4.57;;;21.80;57.50;;;;;;5050963;28;20033;-64
2022/06/05 08:30:07;;;;;;;6.78;5.10;;;21.80;57.40;;;;;;5046883;28;20102;-65
2022/06/05 08:32:33;;;;;;;4.82;4.38;;;21.80;57.40;;;;;;5054010;28;20051;-61
2022/06/05 08:34:59;;;;;;;7.05;4.85;;;21.80;57.50;;;;;;5034792;28;20037;-66
2022/06/05 08:43:23;;;;;;;7.43;5.20;;;21.90;57.80;;;;;;5047188;28;20084;-64
2022/06/05 08:45:58;;;;;;;5.53;4.95;;;21.90;58.10;;;;;;5052324;28;20044;-66
2022/06/05 08:48:40;;;;;;;8.52;4.57;;;21.90;58.40;;;;;;5033611;28;20098;-65
2022/06/05 08:51:24;;;;;;;6.30;4.90;;;21.90;58.60;;;;;;5048329;28;20497;-64
2022/06/05 08:53:55;;;;;;;7.28;4.63;;;21.90;58.70;;;;;;5035111;28;20032;-63
2022/06/05 08:56:40;;;;;;;5.80;5.20;;;21.90;58.80;;;;;;5052287;28;20050;-63
2022/06/05 08:59:31;;;;;;;6.53;4.55;;;21.90;58.80;;;;;;5052915;28;20051;-63
2022/06/05 09:02:15;;;;;;;7.93;4.82;;;21.90;58.90;;;;;;5052931;28;20048;-61
2022/06/05 09:04:58;;;;;;;4.90;4.50;;;21.90;58.90;;;;;;5052646;28;20148;-65
2022/06/05 09:07:37;;;;;;;7.35;4.60;;;22.00;58.90;;;;;;5052631;28;20082;-64
2022/06/05 09:10:13;;;;;;;7.60;4.75;;;22.00;59.00;;;;;;5053917;28;20814;-66
2022/06/05 09:12:47;;;;;;;4.95;4.43;;;22.00;59.00;;;;;;5053545;28;20036;-65
2022/06/05 09:15:28;;;;;;;4.80;4.40;;;22.00;59.00;;;;;;5052503;28;20036;-66
2022/06/05 09:17:57;;;;;;;6.78;4.45;;;22.00;59.10;;;;;;5054113;28;20062;-66
2022/06/05 09:20:55;;;;;;;6.78;4.60;;;22.00;59.10;;;;;;5053361;28;20047;-66
2022/06/05 09:23:29;;;;;;;6.60;4.63;;;22.00;59.00;;;;;;5052825;28;20463;-65
2022/06/05 09:26:16;;;;;;;5.72;4.53;;;22.00;59.20;;;;;;5056049;28;20044;-64
2022/06/05 09:29:04;;;;;;;5.07;4.43;;;22.00;59.20;;;;;;5054700;28;20436;-64
2022/06/05 09:31:44;;;;;;;4.88;4.47;;;22.00;59.20;;;;;;5054964;28;20067;-64
2022/06/05 09:34:25;;;;;;;7.53;4.90;;;22.00;59.40;;;;;;5052965;28;20110;-62
2022/06/05 09:37:08;;;;;;;5.00;4.60;;;22.00;59.40;;;;;;5050937;28;20698;-65
2022/06/05 09:39:50;;;;;;;6.40;4.88;;;22.00;59.50;;;;;;5052845;28;20044;-65
2022/06/05 09:42:31;;;;;;;4.95;4.45;;;22.10;59.60;;;;;;5048865;28;20071;-64
2022/06/05 09:45:19;;;;;;;6.30;4.43;;;22.00;59.60;;;;;;5047213;28;20082;-66
2022/06/05 09:48:03;;;;;;;4.57;4.18;;;22.10;59.50;;;;;;5052026;28;20522;-66
2022/06/05 09:50:30;;;;;;;7.82;4.63;;;22.10;59.50;;;;;;5052500;28;20038;-66
2022/06/05 09:52:56;;;;;;;4.82;4.38;;;22.10;59.50;;;;;;5052094;28;21214;-64
2022/06/05 09:55:49;;;;;;;6.40;4.82;;;22.10;59.60;;;;;;5055209;28;20037;-65
2022/06/05 09:58:39;;;;;;;5.07;4.63;;;22.10;59.70;;;;;;5046349;28;20156;-65
2022/06/05 10:01:29;;;;;;;4.60;4.20;;;22.10;59.60;;;;;;5053256;28;20040;-64
2022/06/05 10:03:59;;;;;;;8.05;4.70;;;22.10;59.70;;;;;;5052834;28;20114;-66
2022/06/05 10:06:46;;;;;;;5.03;4.53;;;22.10;59.50;;;;;;5054939;28;20033;-66
2022/06/05 10:09:12;;;;;;;9.18;4.80;;;22.10;59.60;;;;;;5055367;28;20119;-64
2022/06/05 10:11:58;;;;;;;4.97;4.53;;;22.10;59.60;;;;;;5053475;28;20033;-66
2022/06/05 10:14:50;;;;;;;4.90;4.38;;;22.10;59.80;;;;;;5053042;28;20047;-66
2022/06/05 10:17:30;;;;;;;4.82;4.43;;;22.10;59.60;;;;;;5053243;28;20049;-65
2022/06/05 10:20:17;;;;;;;4.53;4.10;;;22.10;59.70;;;;;;5054950;28;20045;-60
2022/06/05 10:22:52;;;;;;;5.60;5.10;;;22.10;59.60;;;;;;5054743;28;20408;-65
2022/06/05 10:25:35;;;;;;;4.72;4.20;;;22.10;59.70;;;;;;5051328;28;20045;-64
2022/06/05 10:28:22;;;;;;;4.50;4.10;;;22.20;59.60;;;;;;5039527;28;20189;-64
2022/06/05 10:31:09;;;;;;;7.28;4.80;;;22.10;59.20;;;;;;5036049;28;20048;-61
2022/06/05 10:33:48;;;;;;;5.50;4.40;;;22.10;59.00;;;;;;5055559;28;20067;-66
2022/06/05 10:36:20;;;;;;;5.72;4.88;;;22.10;58.90;;;;;;5055255;28;20049;-66
2022/06/05 10:39:05;;;;;;;4.80;4.40;;;22.10;59.00;;;;;;5052756;28;20883;-61
2022/06/05 10:41:34;;;;;;;4.80;4.30;;;22.10;58.90;;;;;;5052082;28;20119;-63
2022/06/05 10:44:15;;;;;;;4.90;4.50;;;22.10;59.10;;;;;;5047105;28;20122;-66
2022/06/05 10:46:58;;;;;;;5.97;4.80;;;22.10;59.20;;;;;;5053171;28;20074;-65
2022/06/05 10:49:33;;;;;;;6.82;5.05;;;22.20;59.30;;;;;;5051164;28;20066;-65
2022/06/05 10:52:05;;;;;;;6.43;4.85;;;22.20;59.00;;;;;;5050136;28;20041;-64
2022/06/05 10:54:58;;;;;;;5.15;4.65;;;22.10;58.80;;;;;;5048606;28;20129;-61
2022/06/05 10:57:34;;;;;;;5.07;4.50;;;22.20;58.70;;;;;;5051598;28;20045;-66
2022/06/05 11:00:06;;;;;;;4.93;4.53;;;22.10;58.60;;;;;;5053786;28;20058;-62
2022/06/05 11:02:51;;;;;;;6.03;5.22;;;22.10;58.50;;;;;;5051407;28;20037;-62
2022/06/05 11:05:38;;;;;;;5.13;4.68;;;22.10;58.40;;;;;;5051121;28;20040;-65
2022/06/05 11:08:28;;;;;;;4.70;4.40;;;22.10;58.50;;;;;;5050016;28;20105;-64
2022/06/05 11:14:12;;;;;;;5.20;4.70;;;22.10;58.60;;;;;;5053496;28;20063;-66
2022/06/05 11:16:51;;;;;;;6.20;4.85;;;22.10;58.50;;;;;;5052268;28;20451;-62
2022/06/05 11:19:34;;;;;;;4.93;4.53;;;22.10;58.60;;;;;;5052460;28;20064;-64
2022/06/05 11:22:10;;;;;;;6.50;4.80;;;22.10;58.50;;;;;;5052747;28;20040;-65
2022/06/05 11:24:46;;;;;;;5.60;5.10;;;22.10;58.50;;;;;;5053946;28;20064;-64
2022/06/05 11:27:29;;;;;;;5.05;4.60;;;22.10;58.50;;;;;;5053616;28;20067;-60
2022/06/05 11:30:38;;;;;;;5.32;4.93;;;22.10;58.30;;;;;;5052043;28;20155;-61
2022/06/05 11:33:23;;;;;;;5.10;4.70;;;22.10;58.10;;;;;;5040546;28;20097;-62
2022/06/05 11:36:22;;;;;;;5.45;4.65;;;22.10;58.30;;;;;;5053984;28;20152;-64
2022/06/05 11:39:14;;;;;;;5.80;5.30;;;22.10;58.20;;;;;;5043387;28;20064;-62
2022/06/05 11:41:48;;;;;;;4.88;4.47;;;22.10;58.30;;;;;;5038068;28;20520;-64
2022/06/05 11:44:23;;;;;;;7.15;5.25;;;22.10;58.20;;;;;;5049222;28;20036;-63
2022/06/05 11:46:51;;;;;;;5.22;4.80;;;22.10;58.20;;;;;;5057279;28;20051;-64
2022/06/05 11:49:29;;;;;;;4.93;4.43;;;22.10;58.20;;;;;;5050360;28;20045;-62
2022/06/05 11:52:36;;;;;;;6.10;5.00;;;22.10;58.20;;;;;;5047949;28;20037;-64
2022/06/05 11:55:10;;;;;;;4.80;4.40;;;22.10;58.10;;;;;;5046453;28;20167;-64
2022/06/05 11:58:17;;;;;;;5.03;4.63;;;22.10;58.20;;;;;;5058601;28;20025;-64
2022/06/05 12:01:00;;;;;;;5.05;4.70;;;22.10;58.20;;;;;;4943789;28;20156;-64
2022/06/05 12:03:41;;;;;;;4.97;4.57;;;22.10;58.80;;;;;;5045336;28;20139;-64
2022/06/05 12:06:24;;;;;;;5.47;4.97;;;22.10;58.10;;;;;;5056107;28;20060;-64
2022/06/05 12:08:58;;;;;;;4.45;4.15;;;22.10;58.10;;;;;;5043146;28;20040;-64
2022/06/05 12:11:27;;;;;;;4.95;4.55;;;22.10;58.10;;;;;;5054292;28;20046;-62
2022/06/05 12:14:18;;;;;;;5.30;4.85;;;22.10;58.20;;;;;;5054568;28;20660;-62
2022/06/05 12:16:51;;;;;;;;;;;22.10;58.30;;;;;;5051413;28;20129;-64
2022/06/05 12:19:53;;;;;;;5.20;4.80;;;22.10;58.30;;;;;;5054378;28;19947;-63
2022/06/05 12:22:50;;;;;;;5.10;4.70;;;22.10;58.50;;;;;;5055126;28;20044;-64
2022/06/05 12:25:23;;;;;;;5.78;5.10;;;22.10;58.50;;;;;;5046215;28;20424;-64
2022/06/05 12:28:36;;;;;;;6.78;6.20;;;22.10;59.20;;;;;;5052215;28;20053;-64
2022/06/05 12:31:19;;;;;;;6.55;5.90;;;22.10;59.60;;;;;;4993018;28;20072;-63
2022/06/05 12:33:57;;;;;;;6.85;6.20;;;22.10;59.90;;;;;;4994218;28;20066;-64
2022/06/05 12:36:32;;;;;;;7.22;6.53;;;22.10;60.10;;;;;;5018773;28;20053;-64
2022/06/05 12:39:01;;;;;;;7.82;6.40;;;22.10;60.30;;;;;;5042503;28;20074;-64
2022/06/05 12:41:52;;;;;;;6.88;6.38;;;22.10;60.40;;;;;;5050151;28;20362;-62
2022/06/05 12:44:23;;;;;;;;;;;22.10;60.50;;;;;;5050908;28;20040;-64
2022/06/05 12:47:07;;;;;;;7.28;6.57;;;22.10;60.70;;;;;;5046103;28;19921;-62
2022/06/05 12:49:53;;;;;;;7.38;6.75;;;22.10;60.60;;;;;;5047045;28;20052;-64
2022/06/05 12:52:27;;;;;;;6.93;6.32;;;22.10;60.60;;;;;;5041066;28;20497;-63
2022/06/05 12:55:07;;;;;;;7.18;6.68;;;22.10;60.70;;;;;;5010783;28;20049;-65
2022/06/05 12:58:05;;;;;;;7.32;6.70;;;22.20;60.80;;;;;;5029975;28;20049;-64
2022/06/05 13:00:48;;;;;;;6.82;6.22;;;22.10;60.90;;;;;;5041668;28;20088;-64
2022/06/05 13:03:19;;;;;;;7.35;6.60;;;22.10;60.90;;;;;;5028145;28;21174;-63
2022/06/05 13:06:03;;;;;;;6.97;6.47;;;22.20;61.00;;;;;;5041894;28;20052;-64
2022/06/05 13:08:44;;;;;;;7.50;6.90;;;22.20;61.30;;;;;;5035006;28;20029;-64
2022/06/05 13:11:28;;;;;;;6.70;6.07;;;22.20;61.20;;;;;;5036935;28;20033;-63
2022/06/05 13:14:06;;;;;;;6.15;5.75;;;22.20;61.30;;;;;;5046343;28;20836;-64
2022/06/05 13:16:44;;;;;;;6.68;6.07;;;22.30;61.50;;;;;;5038050;28;20083;-61
2022/06/05 13:19:28;;;;;;;6.53;6.03;;;22.30;61.50;;;;;;5048716;28;20074;-65
2022/06/05 13:22:09;;;;;;;7.80;6.40;;;22.30;61.60;;;;;;5035057;28;20084;-62
2022/06/05 13:24:58;;;;;;;6.68;6.18;;;22.40;61.60;;;;;;5047634;28;20105;-65
2022/06/05 13:27:36;;;;;;;5.60;5.20;;;22.40;61.60;;;;;;5039265;28;20044;-62
2022/06/05 13:30:21;;;;;;;6.78;6.20;;;22.40;61.40;;;;;;5047947;28;20048;-61
2022/06/05 13:33:28;;;;;;;7.18;5.82;;;22.40;61.30;;;;;;5048629;28;20146;-64
2022/06/05 13:36:23;;;;;;;6.30;5.80;;;22.40;61.10;;;;;;5038632;28;20090;-65
2022/06/05 13:38:57;;;;;;;6.88;6.28;;;22.40;61.20;;;;;;5036473;28;20084;-64
2022/06/05 13:41:49;;;;;;;6.97;6.47;;;22.40;61.30;;;;;;5040119;28;20127;-64